Time;durP1;ratioP1;P1;durP2;ratioP2;P2;SDS_P1;SDS_P2;PMS_P1;PMS_P2;Temp;Humidity;BMP_temperature;BMP_pressure;BME280_temperature;BME280_humidity;BME280_pressure;Samples;Min_cycle;Max_cycle;Signal;HPM_P1;HPM_P2
2023/12/28 00:00:34;;;;;;;4.70;2.47;;;9.10;99.90;;;;;;5142193;27;20379;-86
2023/12/28 00:03:00;;;;;;;6.85;3.08;;;9.40;99.90;;;;;;5161191;27;20111;-87
2023/12/28 00:05:26;;;;;;;5.32;2.60;;;9.50;99.90;;;;;;5142215;27;20043;-86
2023/12/28 00:07:57;;;;;;;4.63;3.08;;;9.10;99.90;;;;;;5138584;27;20448;-86
2023/12/28 00:10:24;;;;;;;4.63;2.30;;;9.20;99.90;;;;;;5156359;27;20089;-85
2023/12/28 00:12:50;;;;;;;6.03;2.78;;;9.10;99.90;;;;;;5157016;27;20121;-86
2023/12/28 00:15:16;;;;;;;8.35;2.95;;;9.20;99.90;;;;;;5137868;27;20130;-86
2023/12/28 00:17:42;;;;;;;7.15;2.85;;;9.10;99.90;;;;;;5141102;27;20030;-87
2023/12/28 00:20:08;;;;;;;4.60;2.50;;;9.90;99.90;;;;;;5159034;27;20107;-86
2023/12/28 00:22:33;;;;;;;7.07;2.42;;;9.20;99.90;;;;;;5177587;27;20049;-86
2023/12/28 00:24:59;;;;;;;5.80;2.45;;;9.10;99.90;;;;;;5174854;27;20034;-86
2023/12/28 00:27:25;;;;;;;7.50;2.83;;;9.10;99.90;;;;;;5137885;27;20043;-86
2023/12/28 00:29:50;;;;;;;6.97;2.50;;;9.60;99.90;;;;;;5140979;27;20126;-86
2023/12/28 00:32:16;;;;;;;3.95;2.67;;;9.10;99.90;;;;;;5159184;27;20174;-86
2023/12/28 00:34:42;;;;;;;7.50;2.30;;;9.60;99.90;;;;;;5137107;27;20074;-86
2023/12/28 00:37:07;;;;;;;7.88;2.28;;;9.20;99.90;;;;;;5156168;27;20037;-86
2023/12/28 00:39:35;;;;;;;4.72;2.42;;;9.10;99.90;;;;;;5120854;27;20043;-86
2023/12/28 00:42:00;;;;;;;4.75;2.28;;;9.20;99.90;;;;;;5156233;27;20117;-86
2023/12/28 00:44:26;;;;;;;5.60;2.70;;;9.10;99.90;;;;;;5120850;27;20039;-87
2023/12/28 00:46:52;;;;;;;7.40;2.50;;;9.40;99.90;;;;;;5137204;27;20494;-86
2023/12/28 00:49:17;;;;;;;6.40;2.45;;;9.30;99.90;;;;;;5138192;27;20118;-87
2023/12/28 00:51:43;;;;;;;5.88;2.25;;;9.30;99.90;;;;;;5137504;27;20043;-86
2023/12/28 00:54:09;;;;;;;6.90;2.28;;;9.10;99.90;;;;;;5137709;27;20046;-86
2023/12/28 00:56:35;;;;;;;4.85;2.45;;;9.00;99.90;;;;;;5137514;27;20130;-86
2023/12/28 00:59:02;;;;;;;10.25;2.80;;;9.10;99.90;;;;;;5155726;27;20071;-87
2023/12/28 01:01:30;;;;;;;6.15;2.78;;;9.70;99.90;;;;;;5137787;27;20042;-86
2023/12/28 01:03:56;;;;;;;6.82;2.88;;;9.20;99.90;;;;;;5137558;27;20039;-87
2023/12/28 01:06:22;;;;;;;7.60;2.47;;;9.10;99.90;;;;;;5140581;27;20078;-87
2023/12/28 01:08:48;;;;;;;6.68;2.80;;;10.00;99.90;;;;;;5165446;27;20043;-85
2023/12/28 01:11:14;;;;;;;8.52;2.80;;;9.80;99.90;;;;;;5120202;27;20035;-86
2023/12/28 01:13:39;;;;;;;10.15;2.58;;;9.10;99.90;;;;;;5120148;27;20112;-86
2023/12/28 01:16:05;;;;;;;10.07;2.35;;;9.10;99.90;;;;;;5137171;27;20107;-86
2023/12/28 01:18:31;;;;;;;5.53;2.17;;;9.10;99.90;;;;;;5137037;27;20406;-86
2023/12/28 01:20:57;;;;;;;10.15;2.33;;;9.20;99.90;;;;;;5122894;27;20037;-87
2023/12/28 01:23:22;;;;;;;14.38;2.80;;;9.50;99.90;;;;;;5176738;27;20046;-85
2023/12/28 01:25:48;;;;;;;10.85;2.72;;;9.40;99.90;;;;;;5176559;27;20497;-86
2023/12/28 01:28:14;;;;;;;7.40;2.08;;;9.50;99.90;;;;;;5176577;27;20057;-86
2023/12/28 01:30:39;;;;;;;7.85;2.47;;;10.00;99.90;;;;;;5142330;27;20050;-85
2023/12/28 01:33:05;;;;;;;10.68;1.90;;;9.70;99.90;;;;;;5155434;27;20046;-86
2023/12/28 01:35:31;;;;;;;11.20;2.05;;;9.20;99.90;;;;;;5119109;27;20084;-86
2023/12/28 01:37:57;;;;;;;9.85;2.15;;;9.20;99.90;;;;;;5136949;27;20083;-86
2023/12/28 01:40:23;;;;;;;13.80;2.50;;;9.20;99.90;;;;;;5136415;27;20060;-86
2023/12/28 01:42:48;;;;;;;10.52;2.67;;;9.80;99.90;;;;;;5155726;27;20042;-85
2023/12/28 01:45:14;;;;;;;14.77;2.75;;;9.70;99.90;;;;;;5119561;27;20072;-86
2023/12/28 01:47:40;;;;;;;10.35;2.15;;;9.20;99.90;;;;;;5119438;27;20053;-86
2023/12/28 01:50:07;;;;;;;16.23;3.10;;;9.50;99.90;;;;;;5136819;27;20055;-85
2023/12/28 01:52:33;;;;;;;12.55;2.88;;;9.10;99.90;;;;;;5154366;27;20046;-85
2023/12/28 01:54:59;;;;;;;12.23;2.47;;;9.80;99.90;;;;;;5139354;27;20042;-86
2023/12/28 01:57:25;;;;;;;12.25;2.83;;;9.30;99.90;;;;;;5142136;27;20067;-85
2023/12/28 01:59:52;;;;;;;14.02;2.83;;;9.10;99.90;;;;;;5136557;27;20038;-86
2023/12/28 02:02:18;;;;;;;11.23;2.22;;;9.70;99.90;;;;;;5136275;27;20043;-86
2023/12/28 02:04:45;;;;;;;12.98;2.65;;;9.20;99.90;;;;;;5118825;27;20046;-87
2023/12/28 02:07:11;;;;;;;9.68;2.20;;;9.50;99.90;;;;;;5136443;27;20051;-85
2023/12/28 02:09:37;;;;;;;14.82;2.67;;;9.00;99.90;;;;;;5120693;27;20039;-85
2023/12/28 02:12:03;;;;;;;14.90;2.47;;;9.60;99.90;;;;;;5155566;27;20038;-86
2023/12/28 02:14:29;;;;;;;7.93;2.45;;;9.00;99.90;;;;;;5165620;27;20035;-86
2023/12/28 02:17:29;;;;;;;9.25;2.55;;;9.50;99.90;;;;;;5160632;27;20189;-86
2023/12/28 02:19:56;;;;;;;10.27;2.05;;;9.00;99.90;;;;;;5050703;28;20049;-86
2023/12/28 02:22:25;;;;;;;12.52;2.88;;;9.00;99.90;;;;;;5050668;28;20052;-85
2023/12/28 02:25:13;;;;;;;15.27;2.83;;;9.10;99.90;;;;;;5035380;28;20485;-85
2023/12/28 02:27:40;;;;;;;13.52;3.05;;;9.00;99.90;;;;;;5034162;28;20071;-86
2023/12/28 02:30:07;;;;;;;13.35;2.55;;;9.60;99.90;;;;;;5049915;28;20053;-86
2023/12/28 02:32:56;;;;;;;9.95;2.20;;;9.00;99.90;;;;;;5017286;28;20099;-86
2023/12/28 02:35:31;;;;;;;19.60;2.83;;;9.00;99.90;;;;;;5040745;28;20044;-85
2023/12/28 02:38:02;;;;;;;14.93;2.53;;;8.90;99.90;;;;;;5051715;28;20606;-87
2023/12/28 02:40:30;;;;;;;13.20;2.75;;;9.20;99.90;;;;;;5053696;28;20045;-85
2023/12/28 02:42:56;;;;;;;9.98;2.17;;;8.90;99.90;;;;;;5060128;28;20421;-86
2023/12/28 02:45:22;;;;;;;10.70;2.65;;;9.50;99.90;;;;;;5040980;28;20041;-86
2023/12/28 02:47:47;;;;;;;22.70;2.83;;;9.40;99.90;;;;;;5053844;28;20452;-87
2023/12/28 02:50:13;;;;;;;12.10;3.03;;;8.90;99.90;;;;;;5050713;28;20429;-86
2023/12/28 02:52:39;;;;;;;12.50;2.45;;;8.90;99.90;;;;;;5046033;28;20128;-86
2023/12/28 02:55:05;;;;;;;11.98;2.47;;;9.00;99.90;;;;;;5053475;28;20055;-85
2023/12/28 02:57:31;;;;;;;11.52;2.85;;;9.00;99.90;;;;;;5127161;27;20040;-85
2023/12/28 03:00:01;;;;;;;23.38;2.88;;;9.10;99.90;;;;;;5133621;28;20050;-86
2023/12/28 03:02:26;;;;;;;11.05;2.35;;;9.50;99.90;;;;;;5130154;27;20363;-86
2023/12/28 03:04:52;;;;;;;13.57;2.30;;;9.70;99.90;;;;;;5162700;27;20102;-86
2023/12/28 03:07:18;;;;;;;10.93;2.78;;;9.10;99.90;;;;;;5156219;27;20065;-86
2023/12/28 03:09:43;;;;;;;13.88;2.75;;;9.40;99.90;;;;;;5156076;27;20046;-85
2023/12/28 03:12:09;;;;;;;10.90;2.60;;;9.20;99.90;;;;;;5168672;27;20033;-86
2023/12/28 03:14:35;;;;;;;8.15;1.83;;;9.40;99.90;;;;;;5153816;27;20042;-86
2023/12/28 03:17:00;;;;;;;9.05;2.25;;;9.90;99.90;;;;;;5163732;27;20078;-86
2023/12/28 03:19:26;;;;;;;11.00;2.20;;;10.00;99.90;;;;;;5135353;27;20426;-86
2023/12/28 03:21:52;;;;;;;11.45;2.58;;;9.50;99.90;;;;;;5137407;27;20077;-87
2023/12/28 03:24:17;;;;;;;13.45;1.85;;;9.70;99.90;;;;;;5137268;27;20034;-85
2023/12/28 03:26:43;;;;;;;10.23;2.20;;;9.60;99.90;;;;;;5122386;27;20046;-86
2023/12/28 03:29:09;;;;;;;15.80;3.03;;;9.40;99.90;;;;;;5139686;27;20043;-86
2023/12/28 03:31:42;;;;;;;18.40;3.67;;;9.70;99.90;;;;;;5157969;27;20077;-86
2023/12/28 03:34:07;;;;;;;11.48;2.15;;;9.50;99.90;;;;;;5121231;27;20038;-85
2023/12/28 03:36:33;;;;;;;13.65;3.08;;;10.20;99.90;;;;;;5139239;27;20035;-86
2023/12/28 03:38:58;;;;;;;13.75;2.13;;;9.50;99.90;;;;;;5158414;27;20038;-86
2023/12/28 03:41:24;;;;;;;14.63;2.10;;;9.70;99.90;;;;;;5172737;27;20035;-86
2023/12/28 03:43:50;;;;;;;10.85;1.95;;;9.70;99.90;;;;;;5156797;27;20038;-86
2023/12/28 03:46:15;;;;;;;7.97;2.22;;;9.60;99.90;;;;;;5121877;27;20494;-86
2023/12/28 03:48:41;;;;;;;14.68;2.35;;;9.70;99.90;;;;;;5157425;27;20030;-87
2023/12/28 03:51:07;;;;;;;10.45;1.85;;;9.70;99.90;;;;;;5139029;27;20043;-87
2023/12/28 03:53:33;;;;;;;9.65;1.88;;;9.70;99.90;;;;;;5138597;27;20045;-86
2023/12/28 03:55:59;;;;;;;8.57;2.00;;;9.70;99.90;;;;;;5156873;27;20119;-87
2023/12/28 03:58:25;;;;;;;7.97;2.13;;;10.10;99.90;;;;;;5121594;27;20043;-87
2023/12/28 04:00:50;;;;;;;12.15;2.05;;;10.00;99.90;;;;;;5139058;27;20042;-87
2023/12/28 04:03:16;;;;;;;8.77;1.80;;;10.20;99.90;;;;;;5138148;27;20043;-88
2023/12/28 04:05:43;;;;;;;9.18;1.90;;;10.20;99.90;;;;;;5157112;27;20387;-87
2023/12/28 04:08:09;;;;;;;9.57;2.45;;;10.30;99.90;;;;;;5139094;27;20047;-86
2023/12/28 04:10:37;;;;;;;16.67;2.10;;;10.10;99.90;;;;;;5138371;27;20038;-87
2023/12/28 04:13:03;;;;;;;10.95;1.67;;;10.40;99.90;;;;;;5156896;27;20065;-87
2023/12/28 04:15:30;;;;;;;11.98;2.30;;;9.90;99.90;;;;;;5141583;27;20506;-86
2023/12/28 04:17:55;;;;;;;9.43;1.90;;;9.90;99.90;;;;;;5138284;27;20051;-86
2023/12/28 04:20:21;;;;;;;10.70;1.98;;;10.60;99.90;;;;;;5138472;27;20041;-86
2023/12/28 04:22:48;;;;;;;12.85;2.15;;;10.00;99.90;;;;;;5156912;27;20046;-87
2023/12/28 04:25:16;;;;;;;11.35;2.13;;;10.90;99.90;;;;;;5137548;27;20115;-87
2023/12/28 04:27:41;;;;;;;13.52;2.75;;;10.70;99.90;;;;;;5159067;27;20038;-87
2023/12/28 04:30:08;;;;;;;7.40;1.80;;;10.20;99.90;;;;;;5177534;27;20049;-87
2023/12/28 04:32:33;;;;;;;16.45;2.03;;;10.00;99.90;;;;;;5158417;27;20390;-87
2023/12/28 04:34:59;;;;;;;10.95;1.65;;;10.70;99.90;;;;;;5155840;27;20045;-86
2023/12/28 04:37:28;;;;;;;12.57;2.10;;;10.60;99.90;;;;;;5156617;27;20080;-87
2023/12/28 04:39:54;;;;;;;15.38;2.20;;;10.10;99.90;;;;;;5137681;27;20499;-87
2023/12/28 04:42:19;;;;;;;14.45;2.10;;;10.10;99.90;;;;;;5141291;27;20042;-87
2023/12/28 04:44:45;;;;;;;12.63;2.55;;;10.20;99.90;;;;;;5173155;27;20495;-87
2023/12/28 04:47:11;;;;;;;10.40;2.38;;;10.10;99.90;;;;;;5137506;27;20051;-87
2023/12/28 04:49:36;;;;;;;12.60;1.88;;;10.40;99.90;;;;;;5137980;27;20430;-87
2023/12/28 04:52:02;;;;;;;9.77;1.80;;;10.90;99.90;;;;;;5137833;27;20107;-87
2023/12/28 04:54:28;;;;;;;15.00;1.77;;;10.10;99.90;;;;;;5137618;27;20055;-87
2023/12/28 04:56:54;;;;;;;9.20;1.48;;;10.60;99.90;;;;;;5137447;27;20035;-87
2023/12/28 04:59:19;;;;;;;13.38;2.03;;;10.70;99.90;;;;;;5159776;27;20439;-87
2023/12/28 05:01:45;;;;;;;18.42;2.58;;;10.70;99.90;;;;;;5177121;27;20046;-87
2023/12/28 05:04:11;;;;;;;12.25;2.13;;;10.60;99.90;;;;;;5177110;27;20042;-86
2023/12/28 05:06:37;;;;;;;10.02;2.03;;;10.20;99.90;;;;;;5168691;27;20548;-86
2023/12/28 05:09:04;;;;;;;13.63;2.08;;;10.20;99.90;;;;;;5137137;27;20121;-86
2023/12/28 05:11:30;;;;;;;16.40;2.58;;;10.30;99.90;;;;;;5120587;27;20407;-86
2023/12/28 05:13:56;;;;;;;15.85;2.03;;;10.90;99.90;;;;;;5158289;27;20056;-87
2023/12/28 05:16:22;;;;;;;13.32;2.10;;;10.40;99.90;;;;;;5158390;27;20547;-86
2023/12/28 05:18:48;;;;;;;16.25;2.08;;;10.40;99.90;;;;;;5118977;27;20042;-85
2023/12/28 05:21:14;;;;;;;13.85;2.08;;;11.10;99.90;;;;;;5137240;27;20052;-86
2023/12/28 05:23:40;;;;;;;13.30;1.67;;;10.40;99.90;;;;;;5137578;27;20169;-86
2023/12/28 05:26:06;;;;;;;13.27;2.00;;;10.30;99.90;;;;;;5155653;27;20039;-85
2023/12/28 05:28:32;;;;;;;16.08;2.40;;;10.20;99.90;;;;;;5155356;27;20051;-86
2023/12/28 05:30:58;;;;;;;8.25;2.38;;;10.40;99.90;;;;;;5130684;27;20126;-85
2023/12/28 05:33:25;;;;;;;19.15;2.45;;;10.60;99.90;;;;;;5127278;27;20372;-87
2023/12/28 05:35:51;;;;;;;12.98;2.30;;;10.30;99.90;;;;;;5116546;27;20031;-85
2023/12/28 05:38:17;;;;;;;12.73;2.25;;;10.30;99.90;;;;;;5120728;27;20444;-85
2023/12/28 05:40:44;;;;;;;18.50;2.80;;;10.60;99.90;;;;;;5159147;27;20521;-85
2023/12/28 05:43:10;;;;;;;11.32;2.03;;;10.40;99.90;;;;;;5154410;27;20118;-86
2023/12/28 05:45:36;;;;;;;15.45;2.17;;;10.30;99.90;;;;;;5119541;27;20039;-85
2023/12/28 05:48:02;;;;;;;18.08;2.67;;;10.70;99.90;;;;;;5155158;27;20035;-87
2023/12/28 05:50:27;;;;;;;17.15;2.60;;;10.30;99.90;;;;;;5118673;27;20056;-85
2023/12/28 05:52:53;;;;;;;17.13;2.30;;;10.40;99.90;;;;;;5129378;27;20394;-85
2023/12/28 05:55:19;;;;;;;13.85;1.85;;;10.40;99.90;;;;;;5116374;27;20400;-86
2023/12/28 05:57:44;;;;;;;15.77;2.38;;;10.40;99.90;;;;;;5116031;27;20047;-85
2023/12/28 06:00:10;;;;;;;13.98;2.42;;;10.40;99.90;;;;;;5122791;27;20122;-85
2023/12/28 06:02:36;;;;;;;12.00;1.90;;;10.40;99.90;;;;;;5136353;27;20042;-87
2023/12/28 06:05:02;;;;;;;14.75;2.58;;;10.80;99.90;;;;;;5155042;27;20039;-86
2023/12/28 06:07:28;;;;;;;17.38;2.72;;;10.40;99.90;;;;;;5119084;27;20038;-83
2023/12/28 06:09:53;;;;;;;15.68;2.10;;;10.50;99.90;;;;;;5135280;27;20075;-83
2023/12/28 06:12:19;;;;;;;14.90;1.95;;;10.30;99.90;;;;;;5145336;27;20451;-85
2023/12/28 06:14:44;;;;;;;17.42;2.83;;;10.50;99.90;;;;;;5135624;27;20078;-83
2023/12/28 06:17:10;;;;;;;17.92;2.28;;;10.30;99.90;;;;;;5154888;27;20047;-85
2023/12/28 06:19:36;;;;;;;15.32;1.80;;;10.60;99.90;;;;;;5136486;27;20383;-83
2023/12/28 06:22:02;;;;;;;16.67;2.50;;;10.50;99.90;;;;;;5163624;27;20394;-84
2023/12/28 06:24:27;;;;;;;19.65;2.67;;;10.30;99.90;;;;;;5140910;27;20042;-83
2023/12/28 06:26:53;;;;;;;15.57;2.17;;;10.80;99.90;;;;;;5164966;27;20031;-83
2023/12/28 06:29:19;;;;;;;23.35;2.83;;;11.00;99.90;;;;;;5136354;27;20043;-83
2023/12/28 06:31:44;;;;;;;17.63;2.03;;;10.40;99.90;;;;;;5122958;27;20423;-84
2023/12/28 06:34:10;;;;;;;17.35;2.55;;;10.40;99.90;;;;;;5132760;27;20081;-85
2023/12/28 06:36:35;;;;;;;11.95;2.53;;;10.90;99.90;;;;;;5115031;27;20137;-83
2023/12/28 06:39:01;;;;;;;15.40;2.47;;;10.40;99.90;;;;;;5115753;27;20065;-85
2023/12/28 06:41:27;;;;;;;15.02;2.75;;;10.30;99.90;;;;;;5114808;27;20043;-84
2023/12/28 06:43:53;;;;;;;14.95;2.25;;;10.40;99.90;;;;;;5114662;27;20031;-85
2023/12/28 06:46:19;;;;;;;17.70;1.92;;;10.90;99.90;;;;;;5133557;27;20526;-84
2023/12/28 06:48:45;;;;;;;20.33;2.45;;;10.90;99.90;;;;;;5133684;27;20054;-84
2023/12/28 06:51:17;;;;;;;19.90;2.60;;;10.70;99.90;;;;;;5115184;28;20440;-83
2023/12/28 06:53:43;;;;;;;20.33;2.58;;;10.90;99.90;;;;;;5132897;27;20042;-84
2023/12/28 06:56:09;;;;;;;19.30;2.78;;;11.00;99.90;;;;;;5117241;27;20043;-84
2023/12/28 06:58:35;;;;;;;18.42;2.55;;;11.10;99.90;;;;;;5135521;27;20047;-83
2023/12/28 07:01:03;;;;;;;17.77;2.67;;;10.80;99.90;;;;;;5153289;27;20074;-84
2023/12/28 07:03:32;;;;;;;18.80;2.58;;;10.50;99.90;;;;;;5141743;27;20051;-84
2023/12/28 07:05:59;;;;;;;18.05;2.72;;;10.80;99.90;;;;;;5132653;28;20075;-84
2023/12/28 07:08:24;;;;;;;15.80;2.10;;;10.50;99.90;;;;;;5114893;28;20051;-84
2023/12/28 07:10:50;;;;;;;16.80;2.45;;;10.70;99.90;;;;;;5113658;28;20039;-84
2023/12/28 07:13:16;;;;;;;18.67;2.83;;;10.60;99.90;;;;;;5114738;28;20408;-84
2023/12/28 07:15:42;;;;;;;17.83;2.58;;;10.70;99.90;;;;;;5096989;28;20110;-85
2023/12/28 07:18:07;;;;;;;26.13;2.22;;;10.50;99.90;;;;;;5096731;28;20043;-84
2023/12/28 07:20:33;;;;;;;16.15;2.83;;;11.00;99.90;;;;;;5133318;28;20071;-83
2023/12/28 07:22:59;;;;;;;17.42;2.70;;;10.60;99.90;;;;;;5114516;28;20407;-84
2023/12/28 07:25:24;;;;;;;22.10;2.85;;;11.10;99.90;;;;;;5114470;28;20121;-84
2023/12/28 07:27:50;;;;;;;28.67;3.28;;;10.60;99.90;;;;;;5133135;28;20400;-85
2023/12/28 07:30:16;;;;;;;19.48;3.13;;;10.50;99.90;;;;;;5132506;27;20065;-84
2023/12/28 07:32:43;;;;;;;18.85;2.53;;;10.50;99.90;;;;;;5155366;27;20478;-85
2023/12/28 07:35:09;;;;;;;22.80;3.35;;;10.50;99.90;;;;;;5174732;27;20039;-83
2023/12/28 07:37:35;;;;;;;24.33;3.17;;;10.60;99.90;;;;;;5155176;27;20083;-84
2023/12/28 07:40:01;;;;;;;19.25;3.05;;;10.70;99.90;;;;;;5155112;27;20436;-84
2023/12/28 07:42:27;;;;;;;13.50;2.35;;;10.60;99.90;;;;;;5173034;27;20096;-86
2023/12/28 07:44:53;;;;;;;23.20;2.92;;;10.60;99.90;;;;;;5174341;27;20046;-82
2023/12/28 07:47:19;;;;;;;23.15;3.00;;;10.70;99.90;;;;;;5173902;27;20077;-85
2023/12/28 07:49:44;;;;;;;20.67;3.30;;;10.70;99.90;;;;;;5154777;27;20072;-84
2023/12/28 07:52:10;;;;;;;25.65;3.13;;;10.50;99.90;;;;;;5174156;27;20126;-85
2023/12/28 07:54:36;;;;;;;22.98;3.67;;;10.50;99.90;;;;;;5155729;27;20041;-83
2023/12/28 07:57:01;;;;;;;22.35;3.67;;;11.10;99.90;;;;;;5155121;27;20144;-84
2023/12/28 07:59:27;;;;;;;26.58;3.40;;;10.50;99.90;;;;;;5173472;27;20030;-83
2023/12/28 08:01:53;;;;;;;27.50;3.90;;;10.50;99.90;;;;;;5155124;27;20042;-86
2023/12/28 08:04:18;;;;;;;27.45;3.47;;;10.50;99.90;;;;;;5155675;27;20038;-84
2023/12/28 08:06:44;;;;;;;35.67;4.68;;;10.90;99.90;;;;;;5156760;27;20050;-83
2023/12/28 08:09:10;;;;;;;29.63;4.32;;;11.20;99.90;;;;;;5159171;27;20438;-85
2023/12/28 08:11:35;;;;;;;24.30;3.75;;;11.10;99.90;;;;;;5159319;27;20035;-85
2023/12/28 08:14:01;;;;;;;24.92;3.70;;;10.70;99.90;;;;;;5177345;27;20045;-83
2023/12/28 08:16:27;;;;;;;22.77;3.00;;;10.70;99.90;;;;;;5177906;27;20038;-84
2023/12/28 08:18:53;;;;;;;22.45;3.95;;;10.80;99.90;;;;;;5142038;27;20471;-84
2023/12/28 08:21:18;;;;;;;22.95;3.47;;;11.20;99.90;;;;;;5159463;27;20091;-83
2023/12/28 08:23:44;;;;;;;20.95;3.35;;;10.80;99.90;;;;;;5178000;27;20045;-84
2023/12/28 08:26:10;;;;;;;26.70;4.20;;;11.20;99.90;;;;;;5159251;27;20541;-84
2023/12/28 08:28:36;;;;;;;26.73;3.92;;;10.80;99.90;;;;;;5159370;27;20091;-83
2023/12/28 08:31:02;;;;;;;22.70;3.75;;;10.80;99.90;;;;;;5141551;27;20050;-83
2023/12/28 08:33:28;;;;;;;26.42;3.83;;;10.80;99.90;;;;;;5159234;27;20118;-85
2023/12/28 08:35:54;;;;;;;33.30;4.55;;;10.80;99.90;;;;;;5159222;27;20038;-84
2023/12/28 08:38:20;;;;;;;23.75;3.53;;;11.00;99.90;;;;;;5158910;27;20043;-84
2023/12/28 08:40:45;;;;;;;29.05;4.00;;;10.80;99.90;;;;;;5158931;27;20089;-83
2023/12/28 08:43:11;;;;;;;26.85;3.72;;;11.10;99.90;;;;;;5158711;27;20042;-84
2023/12/28 08:45:37;;;;;;;20.20;4.25;;;10.90;99.90;;;;;;5141524;27;20101;-84
2023/12/28 08:48:06;;;;;;;32.47;4.65;;;10.90;99.90;;;;;;5158777;27;20395;-83
2023/12/28 08:50:32;;;;;;;29.13;4.18;;;10.90;99.90;;;;;;5177133;27;20053;-83
2023/12/28 08:52:57;;;;;;;24.77;3.92;;;11.10;99.90;;;;;;5158603;27;20038;-84
2023/12/28 08:55:23;;;;;;;34.72;4.75;;;10.90;99.90;;;;;;5141374;27;20054;-84
2023/12/28 08:57:49;;;;;;;25.67;4.40;;;11.40;99.90;;;;;;5158725;27;20110;-84
2023/12/28 09:00:16;;;;;;;34.38;5.45;;;11.20;99.90;;;;;;5177029;27;20052;-83
2023/12/28 09:02:42;;;;;;;29.75;4.50;;;10.90;99.90;;;;;;5158455;27;20128;-83
2023/12/28 09:05:09;;;;;;;23.27;4.30;;;11.40;99.90;;;;;;5177234;27;20125;-84
2023/12/28 09:07:42;;;;;;;34.97;4.97;;;10.90;99.90;;;;;;5177133;27;20035;-84
2023/12/28 09:10:10;;;;;;;27.55;4.28;;;11.40;99.90;;;;;;5158433;27;20494;-84
2023/12/28 09:12:36;;;;;;;33.63;4.30;;;11.00;99.90;;;;;;5141022;27;20034;-84
2023/12/28 09:15:02;;;;;;;29.65;4.40;;;11.30;99.90;;;;;;5176008;27;20038;-85
2023/12/28 09:17:28;;;;;;;30.05;4.45;;;11.00;99.90;;;;;;5176180;27;20034;-83
2023/12/28 09:19:54;;;;;;;26.75;4.63;;;11.30;99.90;;;;;;5177050;27;20041;-85
2023/12/28 09:22:19;;;;;;;33.88;4.97;;;11.00;99.90;;;;;;5157652;27;20501;-84
2023/12/28 09:24:45;;;;;;;35.85;4.70;;;11.20;99.90;;;;;;5176436;27;20065;-84
2023/12/28 09:27:11;;;;;;;29.60;3.72;;;11.60;99.90;;;;;;5158181;27;20049;-83
2023/12/28 09:29:36;;;;;;;35.58;4.72;;;11.10;99.90;;;;;;5176473;27;20390;-84
2023/12/28 09:32:02;;;;;;;30.10;4.50;;;11.10;99.90;;;;;;5154125;27;20058;-84
2023/12/28 09:34:28;;;;;;;23.15;3.97;;;11.10;99.90;;;;;;5137005;27;20043;-85
2023/12/28 09:36:53;;;;;;;27.40;4.32;;;12.10;99.90;;;;;;5155781;27;20039;-84
2023/12/28 09:39:19;;;;;;;21.67;4.22;;;11.50;99.90;;;;;;5137305;27;20521;-84
2023/12/28 09:41:49;;;;;;;30.10;4.22;;;11.10;99.90;;;;;;5155668;27;20050;-84
2023/12/28 09:44:15;;;;;;;24.48;4.63;;;11.50;99.90;;;;;;5155708;27;20542;-83
2023/12/28 09:46:44;;;;;;;29.30;4.70;;;11.10;99.90;;;;;;5155698;27;20146;-84
2023/12/28 09:49:11;;;;;;;22.45;4.53;;;11.10;99.90;;;;;;5153447;27;20099;-84
2023/12/28 09:51:36;;;;;;;27.80;4.13;;;11.10;99.90;;;;;;5153978;27;20045;-83
2023/12/28 09:54:05;;;;;;;29.00;4.53;;;11.10;99.90;;;;;;5153555;27;20034;-84
2023/12/28 09:56:32;;;;;;;20.02;3.90;;;11.10;99.90;;;;;;5154118;27;20455;-85
2023/12/28 09:58:59;;;;;;;28.08;3.13;;;11.20;99.90;;;;;;5154472;27;20049;-84
2023/12/28 10:01:25;;;;;;;25.08;3.97;;;11.20;99.90;;;;;;5139350;27;20066;-84
2023/12/28 10:03:51;;;;;;;30.33;4.47;;;11.10;99.90;;;;;;5157098;27;20044;-84
2023/12/28 10:06:16;;;;;;;25.42;3.63;;;11.10;99.90;;;;;;5157147;27;20052;-85
2023/12/28 10:08:49;;;;;;;36.05;5.93;;;11.10;99.90;;;;;;5156854;27;20477;-84
2023/12/28 10:11:16;;;;;;;28.20;5.22;;;11.60;99.90;;;;;;5175762;27;20053;-84
2023/12/28 10:13:43;;;;;;;22.90;4.20;;;11.40;99.90;;;;;;5175642;27;20038;-84
2023/12/28 10:16:12;;;;;;;28.40;4.95;;;11.00;99.90;;;;;;5143196;27;20074;-84
2023/12/28 10:18:44;;;;;;;26.83;3.72;;;11.00;99.90;;;;;;5136063;27;20554;-84
2023/12/28 10:21:10;;;;;;;33.28;4.65;;;11.00;99.90;;;;;;5136169;27;20082;-84
2023/12/28 10:23:36;;;;;;;25.80;3.90;;;11.50;99.90;;;;;;5154584;27;20057;-83
2023/12/28 10:26:04;;;;;;;28.35;4.28;;;11.00;99.90;;;;;;5154580;27;20046;-84
2023/12/28 10:28:33;;;;;;;26.60;3.78;;;11.00;99.90;;;;;;5135752;27;20061;-83
2023/12/28 10:30:58;;;;;;;21.70;4.32;;;11.10;99.90;;;;;;5154244;27;20059;-84
2023/12/28 10:33:25;;;;;;;17.23;3.25;;;11.10;99.90;;;;;;5135936;27;20042;-84
2023/12/28 10:35:52;;;;;;;33.22;5.32;;;11.10;99.90;;;;;;5135874;27;20051;-83
2023/12/28 10:38:19;;;;;;;28.05;4.10;;;11.50;99.90;;;;;;5152480;27;20056;-83
2023/12/28 10:40:46;;;;;;;23.33;3.55;;;11.00;99.90;;;;;;5153405;27;20405;-83
2023/12/28 10:43:16;;;;;;;20.90;4.70;;;11.50;99.90;;;;;;5154104;27;20041;-83
2023/12/28 10:45:46;;;;;;;18.52;4.32;;;11.10;99.90;;;;;;5135870;27;20038;-84
2023/12/28 10:48:13;;;;;;;29.65;3.95;;;11.10;99.90;;;;;;5154249;27;20113;-83
2023/12/28 10:50:46;;;;;;;27.52;4.18;;;11.10;99.90;;;;;;5135622;27;20045;-83
2023/12/28 10:53:34;;;;;;;25.05;3.88;;;10.70;99.90;;;;;;5152188;27;20433;-85
2023/12/28 10:56:22;;;;;;;25.45;3.45;;;11.10;99.90;;;;;;5154054;27;20391;-84
2023/12/28 10:59:13;;;;;;;29.48;4.15;;;11.10;99.90;;;;;;5153212;27;20448;-86
2023/12/28 11:01:41;;;;;;;26.52;3.22;;;11.10;99.90;;;;;;5152746;27;20085;-83
2023/12/28 11:04:17;;;;;;;18.75;3.83;;;11.10;99.90;;;;;;5153935;27;20047;-84
2023/12/28 11:06:44;;;;;;;21.25;3.40;;;11.10;99.90;;;;;;5153718;27;20364;-84
2023/12/28 11:09:11;;;;;;;21.23;3.72;;;11.10;99.90;;;;;;5138262;27;20045;-84
2023/12/28 11:11:38;;;;;;;26.05;3.95;;;11.10;99.90;;;;;;5152382;27;20042;-85
2023/12/28 11:14:04;;;;;;;25.98;3.75;;;11.10;99.90;;;;;;5118442;27;20043;-84
2023/12/28 11:16:32;;;;;;;30.17;3.90;;;11.00;99.90;;;;;;5135808;27;20125;-85
2023/12/28 11:18:59;;;;;;;29.73;4.30;;;11.00;99.90;;;;;;5117364;27;20499;-85
2023/12/28 11:21:25;;;;;;;28.25;4.22;;;11.00;99.90;;;;;;5114903;28;20043;-83
2023/12/28 11:23:51;;;;;;;26.17;3.85;;;11.20;99.90;;;;;;5135178;27;20047;-84
2023/12/28 11:26:18;;;;;;;25.85;4.03;;;11.50;99.90;;;;;;5147289;27;20042;-84
2023/12/28 11:28:44;;;;;;;25.23;4.22;;;10.90;99.90;;;;;;5118306;27;20043;-84
2023/12/28 11:31:13;;;;;;;21.90;3.55;;;10.90;99.90;;;;;;5135147;27;20099;-84
2023/12/28 11:33:46;;;;;;;30.38;4.18;;;10.90;99.90;;;;;;5135221;27;20115;-84
2023/12/28 11:36:25;;;;;;;22.92;3.75;;;11.20;99.90;;;;;;5135582;27;20050;-84
2023/12/28 11:38:58;;;;;;;23.15;3.42;;;10.90;99.90;;;;;;5153177;27;20071;-84
2023/12/28 11:41:25;;;;;;;32.33;4.10;;;11.00;99.90;;;;;;5156383;27;20402;-84
2023/12/28 11:43:54;;;;;;;28.25;3.30;;;11.00;99.90;;;;;;5157820;27;20043;-84
2023/12/28 11:46:23;;;;;;;29.15;4.32;;;11.10;99.90;;;;;;5122361;27;20042;-85
2023/12/28 11:48:49;;;;;;;25.58;3.83;;;11.10;99.90;;;;;;5139054;27;20049;-85
2023/12/28 11:51:14;;;;;;;31.25;3.63;;;11.10;99.90;;;;;;5121298;27;20499;-84
2023/12/28 11:53:42;;;;;;;17.40;3.35;;;11.10;99.90;;;;;;5138965;27;20074;-84
2023/12/28 11:56:09;;;;;;;25.95;3.47;;;11.30;99.90;;;;;;5121848;27;20123;-87
2023/12/28 11:58:35;;;;;;;17.85;3.22;;;11.10;99.90;;;;;;5121454;27;20503;-83
2023/12/28 12:01:04;;;;;;;23.42;3.42;;;11.70;99.90;;;;;;5157469;27;20388;-83
2023/12/28 12:03:29;;;;;;;22.85;3.70;;;11.00;99.90;;;;;;5138878;27;20042;-83
2023/12/28 12:05:57;;;;;;;27.70;4.80;;;10.90;99.90;;;;;;5138815;27;20046;-84
2023/12/28 12:08:23;;;;;;;20.10;3.50;;;11.40;99.90;;;;;;5137959;27;20038;-84
2023/12/28 12:10:59;;;;;;;25.15;3.65;;;11.10;99.90;;;;;;5159556;27;20095;-84
2023/12/28 12:13:25;;;;;;;22.90;3.22;;;11.50;99.90;;;;;;5152243;27;20078;-84
2023/12/28 12:15:51;;;;;;;26.60;3.53;;;11.10;99.90;;;;;;5155235;27;20050;-84
2023/12/28 12:18:17;;;;;;;21.77;3.33;;;11.10;99.90;;;;;;5138619;27;20050;-83
2023/12/28 12:20:43;;;;;;;17.83;2.95;;;11.00;99.90;;;;;;5156854;27;20053;-84
2023/12/28 12:23:09;;;;;;;16.70;3.85;;;11.20;99.90;;;;;;5141736;27;20459;-84
2023/12/28 12:25:34;;;;;;;23.60;3.47;;;11.20;99.90;;;;;;5141839;27;20061;-84
2023/12/28 12:28:00;;;;;;;27.48;3.50;;;11.40;99.90;;;;;;5157066;27;20042;-84
2023/12/28 12:30:26;;;;;;;28.63;4.20;;;11.00;99.90;;;;;;5159092;27;20042;-84
2023/12/28 12:32:51;;;;;;;24.50;3.45;;;11.30;99.90;;;;;;5158938;27;20047;-84
2023/12/28 12:35:21;;;;;;;25.70;4.70;;;10.90;99.90;;;;;;5159123;27;20050;-84
2023/12/28 12:37:49;;;;;;;27.60;4.20;;;11.40;99.90;;;;;;5157521;27;20045;-84